Aeroporto :
LOGIN :

Iscrizione | Disclaimer

   EN    FR    IT 

 










Sommario :    VFR   VFR Marginale   IFR   IFR Intensivo   IFR Molto Intensivo
Visibilità : 
Base nubi : 
>= 8 km
>= 3000ft
5 / 8 km
1000 / 3000 ft
1500m / 5 km
500 / 1000 ft
800 / 1500m
200 / 500 ft
< 800m
< 200 ft
Simboli :   Temporali  Nebbia  Neve Forte  Precipitazioni Forti  Vento > 20 kt
SIGMETs :   Varie  Temporali  Ghiacco  Turbolenza  Onda orograficha  Ceneri Vulcaniche






- Altitudine del aeroporto : 459 ft
- Codice IATA : CER


LFRC - Cherbourg / Maupertus

ULTIMO METAR :
  • 291200Z AUTO 23012KT 200V290 9999 SCT028 BKN200 18/11 Q1013 NOSIG

METARs OBSOLETI :
  • 291130Z AUTO 24009KT 200V270 9999 SCT027 BKN036 BKN045 18/12 Q1013 NOSIG
  • 291100Z AUTO 23010KT 190V270 9999 SCT020 SCT026 BKN037 17/12 Q1013 TEMPO SHRA BKN020TCU
  • 291030Z AUTO 22008KT 180V250 9999 FEW023 SCT034 BKN047 17/12 Q1013 TEMPO SHRA BKN020TCU
  • 291000Z AUTO 23010KT 190V260 9999 FEW020 SCT048 BKN060 17/13 Q1013 TEMPO SHRA BKN020TCU
  • 290930Z AUTO 22007KT 190V260 9999 FEW014/// SCT032/// BKN047/// 17/13 Q1013 TEMPO SHRA BKN020TCU

TAF TAF LFRC
Valido dal 29 a 12 ore il 29 a 21 ore UTC


291100Z 2912/2921 22010KT 9999 BKN020
TEMPO 2915/2921 4000 SHRA BKN020TCU
PROB40
TEMPO 2917/2921 3000 SHRA BKN015CB



MetMap, La meteo Aeronautica in un colpo d'occhio ! - Copyright ORBIFLY Dicembre 2007 - Disclaimer

ORBIFLY MET'MAP TEAM :

Programmazione e sviluppo : Alexandra Zaïnal
Concezione : Baudouin d'Aumeries
Supporto tecnico e logistico : Manuel Goepfert
Aiuto : Marc-Olivier Méhu
Aiuto per la traduzione : Arnaldo La Scala




FONTI E CREDITI :

   NOAA